Terminal Aerodrome Forecast
Issued by NWS

Home | Current Version | Previous Version | Text Only | Print | Product List | Glossary On
Versions: 1 2 3 4 5 6 7 8 9 10 11 12 13 14 15 16 17 18 19 20 21 22 23
334
FTAK31 PAJN 041730
TAFAPG
TAF
PAPG 041730Z 0418/0518 06005KT P6SM VCSH SCT025 BKN060
      TEMPO 0418/0422 VRB03KT 6SM -SHSN BR FEW005 BKN025 OVC035
     FM042200 VRB03KT P6SM SKC
      AMD LTD TO CLD VIS AND WIND 0506/0515=

USA.gov is the U.S. government's official web portal to all federal, state and local government web resources and services.